aviador You're here:

KCON Decoded Metar

CONCORD in NH, USA
Report Time2017-08-18 09:51:00
UTC Time2017-08-18 10:50:17
Flight Rules vfr VFR
Wind240° at 04 kt
W.Decomp.*RWY 30: 2.9 kt HW 2.8 kt LCW
RWY 17: 0.3 kt HW 4.0 kt RCW
W.Rank240° ranks 18
Current wind is below 240° avg. (6.3)
Visibility9999 m
Phenomena:N/A
Clouds:Overcast 047 Hf
Expected CloudBase > 1,200 ft AGL from Temp-Dew spread
Ceiling4,700 ft
Temp17°C (ISA +3)
Dew Point14°C (83% RH)
AAT16.9°C
QNH1015 hPa
Density Alt801 ft
Elevation338 ft
Report Wrong Elevation
Raw Report
KCON 180951Z AUTO 24004KT 10SM OVC047 17/14 A2996 RMK AO2 SLP143
T01670144=

Extra information for KCON:More info

Metar Taf Metar & Taf Last 4 Metars F.Rules Stats Wind Profile Meteogram Temp Stats Airport Information Weather charts Add Link Nearby VenuesMetar ALERT Operation Metar Decoded Social comments

AIRNAV info for KCON